Time;durP1;ratioP1;P1;durP2;ratioP2;P2;SDS_P1;SDS_P2;PMS_P1;PMS_P2;Temp;Humidity;BMP_temperature;BMP_pressure;BME280_temperature;BME280_humidity;BME280_pressure;Samples;Min_cycle;Max_cycle;Signal;HPM_P1;HPM_P2
2022/06/10 00:01:03;;;;;;;10.98;5.97;;;12.00;99.90;;;;;;5021604;28;20053;-45
2022/06/10 00:03:29;;;;;;;12.45;5.80;;;12.00;99.90;;;;;;5021461;28;20045;-44
2022/06/10 00:05:59;;;;;;;12.68;6.00;;;12.00;99.90;;;;;;5020734;28;20049;-43
2022/06/10 00:08:29;;;;;;;14.48;6.00;;;12.00;99.90;;;;;;5020863;28;20048;-43
2022/06/10 00:10:55;;;;;;;12.90;5.78;;;12.00;99.90;;;;;;5017620;28;20572;-47
2022/06/10 00:13:27;;;;;;;15.38;6.15;;;12.00;99.90;;;;;;5020711;28;20128;-43
2022/06/10 00:15:54;;;;;;;12.70;5.90;;;11.90;99.90;;;;;;5021437;28;20355;-44
2022/06/10 00:18:21;;;;;;;15.38;6.35;;;12.00;99.90;;;;;;5021314;28;20107;-43
2022/06/10 00:20:47;;;;;;;13.55;6.95;;;11.90;99.90;;;;;;5020393;28;20049;-44
2022/06/10 00:23:13;;;;;;;14.27;6.25;;;12.00;99.90;;;;;;5020384;28;20046;-44
2022/06/10 00:25:40;;;;;;;12.25;5.78;;;11.90;99.90;;;;;;5021127;28;20045;-44
2022/06/10 00:28:07;;;;;;;13.95;6.47;;;11.90;99.90;;;;;;5019976;28;20053;-45
2022/06/10 00:30:33;;;;;;;13.55;6.88;;;11.90;99.90;;;;;;5020463;28;20096;-43
2022/06/10 00:33:00;;;;;;;11.95;5.43;;;11.90;99.90;;;;;;5021464;28;20883;-43
2022/06/10 00:35:27;;;;;;;18.92;6.32;;;11.80;99.90;;;;;;5021513;28;20052;-43
2022/06/10 00:37:53;;;;;;;11.18;6.15;;;11.80;99.90;;;;;;5020077;28;20068;-43
2022/06/10 00:40:26;;;;;;;11.65;5.93;;;11.80;99.90;;;;;;5023395;28;20053;-46
2022/06/10 00:42:54;;;;;;;15.85;7.38;;;11.80;99.90;;;;;;5022092;28;20057;-45
2022/06/10 00:45:44;;;;;;;11.43;5.53;;;11.80;99.90;;;;;;5020238;28;20081;-45
2022/06/10 00:48:16;;;;;;;11.15;5.85;;;11.80;99.90;;;;;;5020443;28;20123;-47
2022/06/10 00:50:43;;;;;;;13.63;6.25;;;11.70;99.90;;;;;;5020006;28;20124;-46
2022/06/10 00:53:15;;;;;;;11.13;7.07;;;11.70;99.90;;;;;;5019028;28;20486;-45
2022/06/10 00:55:43;;;;;;;11.03;6.20;;;11.70;99.90;;;;;;5019871;28;20049;-45
2022/06/10 00:58:18;;;;;;;14.85;6.20;;;11.70;99.90;;;;;;5019515;28;20059;-44
2022/06/10 01:00:45;;;;;;;12.00;6.65;;;11.60;99.90;;;;;;5029010;28;20061;-44
2022/06/10 01:03:11;;;;;;;13.80;6.65;;;11.60;99.90;;;;;;5021205;28;20420;-45
2022/06/10 01:05:37;;;;;;;14.30;6.45;;;11.50;99.90;;;;;;5039517;28;20044;-47
2022/06/10 01:08:13;;;;;;;11.80;6.55;;;11.60;99.90;;;;;;5039337;28;20127;-43
2022/06/10 01:11:00;;;;;;;14.43;6.88;;;11.50;99.90;;;;;;5040052;28;20045;-44
2022/06/10 01:13:47;;;;;;;13.40;6.97;;;11.50;99.90;;;;;;5039855;28;20049;-44
2022/06/10 01:16:39;;;;;;;10.90;6.28;;;11.50;99.90;;;;;;5039323;28;20049;-45
2022/06/10 01:19:56;;;;;;;9.32;6.15;;;11.50;99.90;;;;;;5037877;28;20059;-44
2022/06/10 01:22:31;;;;;;;14.77;6.05;;;11.40;99.90;;;;;;5021857;28;20040;-43
2022/06/10 01:25:09;;;;;;;12.20;6.72;;;11.40;99.90;;;;;;5020401;28;20132;-44
2022/06/10 01:28:12;;;;;;;14.85;6.45;;;11.40;99.90;;;;;;5038980;28;20071;-44
2022/06/10 01:30:58;;;;;;;11.80;5.68;;;11.40;99.90;;;;;;5040295;28;20044;-44
2022/06/10 01:33:33;;;;;;;12.10;6.05;;;11.30;99.90;;;;;;5040245;28;20096;-44
2022/06/10 01:36:02;;;;;;;14.98;6.40;;;11.30;99.90;;;;;;5039898;28;20053;-44
2022/06/10 01:38:45;;;;;;;17.05;6.50;;;11.30;99.90;;;;;;5021434;28;20089;-43
2022/06/10 01:41:37;;;;;;;26.75;6.53;;;11.30;99.90;;;;;;5041170;28;20044;-44
2022/06/10 01:44:16;;;;;;;11.23;5.78;;;11.30;99.90;;;;;;5039472;28;20395;-45
2022/06/10 01:47:07;;;;;;;10.38;5.68;;;11.30;99.90;;;;;;5039959;28;20053;-44
2022/06/10 01:49:48;;;;;;;16.25;5.70;;;11.30;99.90;;;;;;5041006;28;20080;-46
2022/06/10 01:52:24;;;;;;;12.70;6.22;;;11.30;99.90;;;;;;5044089;28;20504;-45
2022/06/10 01:54:55;;;;;;;13.40;6.18;;;11.30;99.90;;;;;;5041861;28;20049;-44
2022/06/10 01:57:47;;;;;;;11.68;6.03;;;11.20;99.90;;;;;;5040113;28;20045;-48
2022/06/10 02:00:16;;;;;;;17.80;6.45;;;11.30;99.90;;;;;;5033998;28;20515;-45
2022/06/10 02:02:56;;;;;;;10.50;6.63;;;11.20;99.90;;;;;;5040086;28;20057;-44
2022/06/10 02:05:24;;;;;;;13.82;5.70;;;11.20;99.90;;;;;;5018879;28;20132;-45
2022/06/10 02:07:55;;;;;;;11.38;6.65;;;11.30;99.90;;;;;;5039796;28;20548;-45
2022/06/10 02:10:29;;;;;;;11.93;5.28;;;11.20;99.90;;;;;;5022292;28;20503;-44
2022/06/10 02:13:03;;;;;;;17.88;5.72;;;11.20;99.90;;;;;;5021886;28;20460;-44
2022/06/10 02:15:38;;;;;;;10.90;6.07;;;11.20;99.90;;;;;;5022218;28;20052;-43
2022/06/10 02:18:14;;;;;;;14.23;6.60;;;11.20;99.90;;;;;;5042252;28;20098;-43
2022/06/10 02:20:49;;;;;;;13.88;6.93;;;11.20;99.90;;;;;;5025266;28;20085;-45
2022/06/10 02:23:20;;;;;;;14.32;6.30;;;11.20;99.90;;;;;;5023294;28;20060;-44
2022/06/10 02:25:56;;;;;;;12.93;6.35;;;11.20;99.90;;;;;;5039033;28;20474;-45
2022/06/10 02:28:45;;;;;;;11.80;6.38;;;11.20;99.90;;;;;;5042603;28;20408;-45
2022/06/10 02:31:20;;;;;;;16.00;6.78;;;11.20;99.90;;;;;;5043385;28;20060;-44
2022/06/10 02:33:48;;;;;;;17.38;6.65;;;11.20;99.90;;;;;;5042080;28;20411;-44
2022/06/10 02:36:17;;;;;;;14.98;6.78;;;11.10;99.90;;;;;;5043117;28;20273;-43
2022/06/10 02:39:08;;;;;;;13.13;6.80;;;11.10;99.90;;;;;;5043466;28;20049;-44
2022/06/10 02:41:55;;;;;;;13.35;6.63;;;11.10;99.90;;;;;;5022090;28;20107;-43
2022/06/10 02:44:49;;;;;;;12.18;6.18;;;11.10;99.90;;;;;;5037457;28;20083;-43
2022/06/10 02:47:45;;;;;;;18.15;6.30;;;11.10;99.90;;;;;;5021892;28;20057;-45
2022/06/10 02:50:13;;;;;;;15.90;6.20;;;11.10;99.90;;;;;;5039214;28;20044;-44
2022/06/10 02:52:39;;;;;;;13.05;6.80;;;11.00;99.90;;;;;;5024090;28;20167;-44
2022/06/10 02:55:12;;;;;;;14.23;6.45;;;11.00;99.90;;;;;;5042716;28;20076;-44
2022/06/10 03:03:50;;;;;;;14.43;6.18;;;10.90;99.90;;;;;;5043392;28;20053;-43
2022/06/10 03:06:38;;;;;;;11.45;6.10;;;10.90;99.90;;;;;;5024465;28;20053;-43
2022/06/10 03:09:41;;;;;;;18.23;6.88;;;11.00;99.90;;;;;;5006677;28;20595;-44
2022/06/10 03:12:35;;;;;;;15.23;6.55;;;10.90;99.90;;;;;;5033010;28;20144;-45
2022/06/10 03:15:29;;;;;;;16.40;7.47;;;11.00;99.90;;;;;;5042600;28;20059;-44
2022/06/10 03:18:01;;;;;;;14.45;6.07;;;11.00;99.90;;;;;;5041958;28;20483;-43
2022/06/10 03:20:40;;;;;;;14.18;6.53;;;11.00;99.90;;;;;;5041685;28;20061;-43
2022/06/10 03:23:24;;;;;;;14.73;5.55;;;11.00;99.90;;;;;;5041420;28;20124;-44
2022/06/10 03:25:55;;;;;;;12.13;5.40;;;11.00;99.90;;;;;;5042870;28;20155;-44
2022/06/10 03:28:42;;;;;;;12.18;6.68;;;11.00;99.90;;;;;;5041896;28;20095;-44
2022/06/10 03:31:17;;;;;;;17.50;6.15;;;11.00;99.90;;;;;;5042767;28;20448;-46
2022/06/10 03:33:49;;;;;;;14.20;6.28;;;11.00;99.90;;;;;;5024398;28;20052;-43
2022/06/10 03:36:19;;;;;;;10.53;5.87;;;11.00;99.90;;;;;;5042821;28;20477;-47
2022/06/10 03:38:48;;;;;;;10.75;5.93;;;11.00;99.90;;;;;;5042103;28;20388;-45
2022/06/10 03:41:27;;;;;;;15.45;5.53;;;11.00;99.90;;;;;;5042608;28;20145;-45
2022/06/10 03:43:54;;;;;;;12.07;6.00;;;11.10;99.90;;;;;;5042351;28;20044;-46
2022/06/10 03:46:22;;;;;;;12.35;5.95;;;11.10;99.90;;;;;;5042413;28;20041;-47
2022/06/10 03:48:49;;;;;;;16.08;6.75;;;11.20;99.90;;;;;;5042034;28;20627;-48
2022/06/10 03:51:17;;;;;;;14.88;5.72;;;11.20;99.90;;;;;;5041790;28;20041;-45
2022/06/10 03:53:44;;;;;;;12.68;5.80;;;11.30;99.90;;;;;;5041300;28;20496;-46
2022/06/10 03:56:10;;;;;;;11.15;5.53;;;11.40;99.90;;;;;;5041097;28;20047;-44
2022/06/10 03:58:39;;;;;;;14.20;5.32;;;11.90;99.90;;;;;;5043047;28;20088;-44
2022/06/10 04:01:06;;;;;;;10.55;5.07;;;12.70;99.90;;;;;;5019861;28;20484;-43
2022/06/10 04:03:32;;;;;;;11.88;5.80;;;13.60;99.90;;;;;;5021144;28;20313;-43
2022/06/10 04:05:59;;;;;;;12.88;5.22;;;14.30;99.90;;;;;;5020044;28;20057;-45
2022/06/10 04:08:24;;;;;;;15.35;5.00;;;15.00;99.90;;;;;;5022409;28;20047;-43
2022/06/10 04:10:50;;;;;;;11.07;4.15;;;15.80;99.90;;;;;;5021450;28;20049;-43
2022/06/10 04:13:20;;;;;;;12.85;4.70;;;16.30;99.90;;;;;;5016218;28;20064;-46
2022/06/10 04:15:46;;;;;;;13.88;4.35;;;16.50;99.90;;;;;;5019599;28;20540;-44
2022/06/10 04:18:12;;;;;;;16.48;5.18;;;17.00;99.90;;;;;;5022804;28;20087;-45
2022/06/10 04:20:39;;;;;;;14.43;4.18;;;17.50;99.90;;;;;;5025006;28;20085;-43
2022/06/10 04:23:05;;;;;;;9.68;4.07;;;17.90;99.90;;;;;;5022714;28;20455;-45
2022/06/10 04:25:33;;;;;;;8.80;4.43;;;17.60;99.90;;;;;;5015435;28;20132;-46
2022/06/10 04:27:59;;;;;;;13.05;4.72;;;16.90;99.90;;;;;;5021627;28;20116;-45
2022/06/10 04:30:28;;;;;;;18.65;5.30;;;16.20;99.90;;;;;;5020936;28;20589;-46
2022/06/10 04:32:55;;;;;;;11.40;4.13;;;15.60;99.90;;;;;;5021205;28;20037;-45
2022/06/10 04:35:22;;;;;;;12.27;4.93;;;15.20;99.90;;;;;;5021418;28;20049;-45
2022/06/10 04:37:50;;;;;;;14.13;5.53;;;14.80;99.90;;;;;;5020671;28;20618;-45
2022/06/10 04:40:19;;;;;;;15.65;4.65;;;14.70;99.90;;;;;;5021219;28;20089;-44
2022/06/10 04:42:46;;;;;;;15.10;4.90;;;14.40;99.90;;;;;;5018292;28;20524;-44
2022/06/10 04:45:14;;;;;;;18.13;5.47;;;14.20;99.90;;;;;;5018881;28;20432;-43
2022/06/10 04:47:40;;;;;;;16.27;5.10;;;14.10;99.90;;;;;;5020842;28;20053;-43
2022/06/10 04:50:11;;;;;;;16.55;5.35;;;14.00;99.90;;;;;;5021670;28;20055;-44
2022/06/10 04:52:37;;;;;;;18.80;5.50;;;13.90;99.90;;;;;;5020296;28;20053;-46
2022/06/10 04:55:07;;;;;;;14.43;5.50;;;13.90;99.90;;;;;;5020542;28;20466;-44
2022/06/10 04:57:33;;;;;;;16.20;5.53;;;13.80;99.90;;;;;;5020837;28;20076;-43
2022/06/10 04:59:59;;;;;;;13.38;5.03;;;13.80;99.90;;;;;;5025952;28;20056;-44
2022/06/10 05:02:24;;;;;;;14.70;5.75;;;13.70;99.90;;;;;;5040639;28;20057;-44
2022/06/10 05:04:55;;;;;;;14.63;5.68;;;13.60;99.90;;;;;;5040304;28;20049;-44
2022/06/10 05:07:21;;;;;;;13.65;5.07;;;13.70;99.90;;;;;;5040173;28;20040;-46
2022/06/10 05:09:47;;;;;;;19.55;6.38;;;13.70;99.90;;;;;;5023197;28;20594;-44
2022/06/10 05:12:13;;;;;;;15.52;5.10;;;13.70;99.90;;;;;;5023277;28;20094;-44
2022/06/10 05:14:38;;;;;;;15.70;5.47;;;13.70;99.90;;;;;;5040697;28;20476;-44
2022/06/10 05:17:05;;;;;;;18.35;6.80;;;13.70;99.90;;;;;;5039493;28;20510;-43
2022/06/10 05:19:31;;;;;;;13.88;6.00;;;13.70;99.90;;;;;;5041076;28;20049;-45
2022/06/10 05:21:57;;;;;;;14.77;5.45;;;13.80;99.90;;;;;;5024079;28;20194;-44
2022/06/10 05:24:23;;;;;;;12.63;5.55;;;13.80;99.90;;;;;;5023131;28;20590;-45
2022/06/10 05:26:48;;;;;;;15.82;5.38;;;13.80;99.90;;;;;;5040622;28;20045;-46
2022/06/10 05:29:14;;;;;;;15.57;6.88;;;13.80;99.90;;;;;;5020474;28;20057;-47
2022/06/10 05:31:40;;;;;;;16.38;6.03;;;13.80;99.90;;;;;;5023600;28;20060;-45
2022/06/10 05:36:53;;;;;;;14.77;6.03;;;13.90;99.90;;;;;;5034808;28;20056;-46
2022/06/10 05:39:19;;;;;;;15.98;5.85;;;13.90;99.90;;;;;;5040955;28;20506;-47
2022/06/10 05:44:38;;;;;;;16.77;6.03;;;13.90;99.90;;;;;;5040177;28;20083;-46
2022/06/10 05:47:06;;;;;;;15.57;7.05;;;14.00;99.90;;;;;;5018991;28;20057;-44
2022/06/10 05:49:34;;;;;;;19.02;7.00;;;14.00;99.90;;;;;;5038121;28;20080;-44
2022/06/10 05:52:00;;;;;;;15.10;6.15;;;14.10;99.90;;;;;;5045198;28;20053;-44
2022/06/10 05:54:26;;;;;;;16.25;6.18;;;14.00;99.90;;;;;;5044145;28;20052;-44
2022/06/10 05:56:52;;;;;;;16.08;6.95;;;14.10;99.90;;;;;;5024908;28;20057;-44
2022/06/10 05:59:18;;;;;;;19.38;7.00;;;14.10;99.90;;;;;;5044232;28;20450;-43
2022/06/10 06:01:44;;;;;;;18.30;6.68;;;14.10;99.90;;;;;;5044155;28;20064;-47
2022/06/10 06:04:11;;;;;;;14.70;7.15;;;14.20;99.90;;;;;;5022283;28;20054;-44
2022/06/10 06:06:37;;;;;;;15.38;6.25;;;14.20;99.90;;;;;;5040483;28;20075;-46
2022/06/10 06:09:06;;;;;;;12.50;6.68;;;14.20;99.90;;;;;;5044397;28;20575;-45
2022/06/10 06:11:31;;;;;;;14.93;6.45;;;14.30;99.90;;;;;;5025836;28;20053;-44
2022/06/10 06:13:58;;;;;;;15.27;6.35;;;14.40;99.90;;;;;;5044067;28;20091;-44
2022/06/10 06:16:25;;;;;;;14.48;6.30;;;14.40;99.90;;;;;;5042714;28;20052;-45
2022/06/10 06:18:52;;;;;;;18.88;8.63;;;14.50;99.90;;;;;;5043528;28;20114;-44
2022/06/10 06:21:18;;;;;;;17.80;6.72;;;14.50;99.90;;;;;;5044077;28;20048;-44
2022/06/10 06:23:44;;;;;;;18.00;6.20;;;14.60;99.90;;;;;;5042721;28;20052;-46
2022/06/10 06:26:16;;;;;;;16.48;6.55;;;14.60;99.90;;;;;;5042739;28;20037;-46
2022/06/10 06:28:43;;;;;;;13.30;6.40;;;14.70;99.90;;;;;;5025606;28;20486;-44
2022/06/10 06:31:10;;;;;;;16.58;6.78;;;14.70;99.90;;;;;;5043733;28;20056;-46
2022/06/10 06:33:36;;;;;;;13.77;6.05;;;14.70;99.90;;;;;;5043697;28;20091;-45
2022/06/10 06:36:04;;;;;;;16.77;6.30;;;14.80;99.90;;;;;;5043689;28;20499;-45
2022/06/10 06:38:31;;;;;;;15.02;7.30;;;14.80;99.90;;;;;;5025711;28;20147;-47
2022/06/10 06:40:57;;;;;;;13.85;7.35;;;14.90;99.90;;;;;;5044147;28;20598;-45
2022/06/10 06:43:22;;;;;;;15.00;7.45;;;15.00;99.90;;;;;;5044057;28;20381;-44
2022/06/10 06:45:48;;;;;;;14.75;7.93;;;15.10;99.90;;;;;;5044897;28;20095;-44
2022/06/10 06:48:15;;;;;;;20.70;8.23;;;15.10;99.90;;;;;;5046108;28;20045;-44
2022/06/10 06:50:48;;;;;;;18.75;8.85;;;15.10;99.90;;;;;;5023072;28;20684;-45
2022/06/10 06:53:14;;;;;;;16.92;7.57;;;15.20;99.90;;;;;;5043584;28;20049;-46
2022/06/10 06:55:41;;;;;;;18.45;8.13;;;15.30;99.90;;;;;;5043360;28;20048;-44
2022/06/10 06:58:10;;;;;;;17.00;8.40;;;15.50;99.90;;;;;;5022971;28;20084;-47
2022/06/10 07:00:36;;;;;;;17.00;8.52;;;15.60;99.90;;;;;;5043040;28;20075;-45
2022/06/10 07:03:04;;;;;;;12.02;7.13;;;15.70;99.90;;;;;;5023053;28;20054;-45
2022/06/10 07:05:31;;;;;;;14.88;7.25;;;15.70;99.90;;;;;;5044055;28;20456;-45
2022/06/10 07:07:57;;;;;;;16.02;8.15;;;15.70;99.90;;;;;;5042604;28;20128;-46
2022/06/10 07:10:24;;;;;;;15.25;7.22;;;15.90;99.90;;;;;;5042918;28;20059;-45
2022/06/10 07:12:51;;;;;;;12.60;7.40;;;16.10;99.90;;;;;;5041643;28;20051;-46
2022/06/10 07:15:22;;;;;;;16.67;7.35;;;16.30;99.90;;;;;;5043065;28;20559;-45
2022/06/10 07:17:49;;;;;;;12.10;7.00;;;16.60;99.90;;;;;;5042435;28;20044;-47
2022/06/10 07:20:28;;;;;;;15.00;7.65;;;16.80;99.90;;;;;;5023296;28;20126;-45
2022/06/10 07:22:54;;;;;;;20.48;7.63;;;16.90;99.90;;;;;;5024619;28;20416;-46
2022/06/10 07:25:21;;;;;;;14.68;6.72;;;16.90;99.90;;;;;;5021984;28;20057;-44
2022/06/10 07:27:47;;;;;;;16.73;7.25;;;16.80;99.90;;;;;;5040517;28;20527;-47
2022/06/10 07:30:17;;;;;;;14.30;7.78;;;16.70;99.90;;;;;;5042104;28;20059;-44
2022/06/10 07:32:44;;;;;;;13.63;8.30;;;16.50;99.90;;;;;;5042201;28;20467;-44
2022/06/10 07:35:10;;;;;;;15.05;8.13;;;16.30;99.90;;;;;;5042541;28;20044;-46
2022/06/10 07:37:37;;;;;;;16.23;9.40;;;16.30;99.90;;;;;;5042446;28;20131;-44
2022/06/10 07:40:03;;;;;;;19.23;9.60;;;16.30;99.90;;;;;;5024482;28;20521;-44
2022/06/10 07:42:29;;;;;;;11.90;7.47;;;16.30;99.90;;;;;;5025200;28;20156;-45
2022/06/10 07:44:56;;;;;;;15.48;7.32;;;16.30;99.90;;;;;;5042729;28;20049;-46
2022/06/10 07:47:27;;;;;;;15.68;7.65;;;16.30;99.90;;;;;;5043304;28;20555;-44
2022/06/10 07:49:53;;;;;;;17.58;7.43;;;16.30;99.90;;;;;;5043006;28;20053;-45
2022/06/10 07:52:18;;;;;;;15.70;7.15;;;16.20;99.90;;;;;;5043285;28;20480;-45
2022/06/10 07:54:44;;;;;;;19.90;7.65;;;16.20;99.90;;;;;;5043165;28;20059;-47
2022/06/10 07:57:13;;;;;;;14.63;5.93;;;16.20;99.90;;;;;;5044937;28;20071;-45
2022/06/10 07:59:42;;;;;;;13.07;6.25;;;16.10;99.90;;;;;;5044795;28;20048;-47
2022/06/10 08:02:09;;;;;;;17.42;7.15;;;16.20;99.90;;;;;;5043865;28;20064;-45
2022/06/10 08:04:35;;;;;;;14.98;7.70;;;16.20;99.90;;;;;;5040900;28;20048;-49
2022/06/10 08:07:00;;;;;;;13.85;7.32;;;16.20;99.90;;;;;;5042926;28;20049;-45
2022/06/10 08:09:26;;;;;;;16.27;7.75;;;16.20;99.90;;;;;;5043001;28;20048;-45
2022/06/10 08:11:52;;;;;;;17.75;7.55;;;16.10;99.90;;;;;;5042175;28;20048;-45
2022/06/10 08:14:19;;;;;;;19.45;7.85;;;16.20;99.90;;;;;;5021395;28;20045;-46
2022/06/10 08:16:45;;;;;;;17.75;7.55;;;16.30;99.90;;;;;;5021378;28;20059;-44
2022/06/10 08:19:10;;;;;;;15.82;7.07;;;16.40;99.90;;;;;;5040226;28;20053;-46
2022/06/10 08:24:21;;;;;;;12.15;6.88;;;16.80;99.90;;;;;;5041609;28;20076;-45
2022/06/10 08:26:48;;;;;;;16.20;6.40;;;17.10;99.90;;;;;;5020518;28;20155;-44
2022/06/10 08:29:14;;;;;;;13.98;6.97;;;17.20;99.90;;;;;;5035691;28;20492;-47
2022/06/10 08:31:43;;;;;;;19.73;6.25;;;17.40;99.90;;;;;;5037792;28;20045;-49
2022/06/10 08:34:08;;;;;;;17.75;6.88;;;17.50;99.90;;;;;;5020983;28;20359;-45
2022/06/10 08:36:34;;;;;;;14.95;6.55;;;17.60;99.90;;;;;;5041537;28;20045;-45
2022/06/10 08:39:00;;;;;;;13.27;5.63;;;17.50;99.90;;;;;;5037346;28;20075;-45
2022/06/10 08:41:44;;;;;;;19.15;6.88;;;17.30;99.90;;;;;;5038074;28;20506;-44
2022/06/10 08:44:37;;;;;;;13.65;7.10;;;17.20;99.90;;;;;;5040429;28;20459;-44
2022/06/10 08:47:17;;;;;;;12.80;7.18;;;17.20;99.90;;;;;;5038501;28;20049;-45
2022/06/10 08:50:01;;;;;;;16.65;7.25;;;17.40;99.90;;;;;;5041147;28;20056;-44
2022/06/10 08:52:46;;;;;;;17.00;6.95;;;17.60;99.90;;;;;;5034271;28;20132;-46
2022/06/10 08:55:39;;;;;;;14.25;6.60;;;17.80;99.90;;;;;;5038931;28;20059;-46
2022/06/10 08:58:29;;;;;;;17.63;6.85;;;18.10;99.90;;;;;;5023005;28;20064;-45
2022/06/10 09:00:59;;;;;;;15.50;7.35;;;18.20;99.90;;;;;;5039982;28;20092;-45
2022/06/10 09:03:40;;;;;;;16.70;8.07;;;18.20;99.90;;;;;;5035728;28;20512;-45
2022/06/10 09:06:11;;;;;;;20.95;8.73;;;18.30;99.90;;;;;;5037068;28;20044;-44
2022/06/10 09:08:47;;;;;;;20.05;8.10;;;18.10;99.90;;;;;;5021975;28;20079;-45
2022/06/10 09:11:36;;;;;;;19.08;7.95;;;18.00;99.90;;;;;;5038703;28;20095;-45
2022/06/10 09:14:09;;;;;;;16.35;7.95;;;18.00;99.90;;;;;;5045137;28;20051;-45
2022/06/10 09:16:35;;;;;;;16.77;7.43;;;18.10;99.90;;;;;;5024168;28;20063;-46
2022/06/10 09:19:19;;;;;;;20.67;8.40;;;18.10;99.90;;;;;;5039891;28;20053;-46
2022/06/10 09:21:53;;;;;;;23.30;7.82;;;18.00;99.90;;;;;;5035149;28;20052;-45
2022/06/10 09:24:28;;;;;;;19.58;7.22;;;17.90;99.90;;;;;;5038634;28;20083;-44
2022/06/10 09:27:13;;;;;;;18.02;7.50;;;18.00;99.90;;;;;;5037412;28;20052;-44
2022/06/10 09:29:40;;;;;;;19.63;7.65;;;17.90;99.90;;;;;;5040323;28;20056;-46
2022/06/10 09:32:10;;;;;;;17.70;7.70;;;17.90;99.90;;;;;;5040338;28;20505;-45
2022/06/10 09:34:50;;;;;;;16.48;8.57;;;17.90;99.90;;;;;;5022459;28;20071;-45
2022/06/10 09:37:44;;;;;;;20.25;8.43;;;17.80;99.90;;;;;;5040189;28;20463;-45
2022/06/10 09:40:38;;;;;;;18.33;7.32;;;18.00;99.90;;;;;;5032578;28;20163;-45
2022/06/10 09:43:33;;;;;;;19.27;8.25;;;18.10;99.90;;;;;;5038794;28;20057;-45
2022/06/10 09:46:36;;;;;;;17.25;7.50;;;18.20;99.90;;;;;;5039702;28;20041;-45
2022/06/10 09:49:35;;;;;;;14.85;7.38;;;18.20;99.90;;;;;;4939891;29;20073;-45
2022/06/10 09:52:16;;;;;;;16.15;7.22;;;18.30;99.90;;;;;;4939853;29;20139;-44
2022/06/10 09:55:12;;;;;;;16.33;6.95;;;18.30;99.90;;;;;;4939659;29;20106;-44
2022/06/10 09:57:44;;;;;;;17.05;6.68;;;18.30;99.90;;;;;;4940128;29;20062;-45
2022/06/10 10:00:11;;;;;;;13.52;6.25;;;18.30;99.90;;;;;;4939713;29;20118;-45
2022/06/10 10:02:55;;;;;;;14.10;5.78;;;18.30;99.90;;;;;;4939667;29;20055;-47
2022/06/10 10:05:39;;;;;;;9.55;5.45;;;18.30;99.90;;;;;;4938101;29;20043;-46
2022/06/10 10:08:07;;;;;;;6.60;4.00;;;18.30;99.90;;;;;;4922024;29;20195;-45
2022/06/10 10:10:46;;;;;;;9.55;4.45;;;18.50;99.90;;;;;;4938868;29;20093;-45
2022/06/10 10:13:34;;;;;;;13.32;5.80;;;18.50;99.90;;;;;;4921166;29;20047;-46
2022/06/10 10:16:05;;;;;;;9.27;5.22;;;18.80;99.90;;;;;;4939279;29;20566;-46
2022/06/10 10:18:57;;;;;;;11.02;5.97;;;18.90;99.90;;;;;;4922454;29;20186;-46
2022/06/10 10:21:56;;;;;;;10.02;5.38;;;19.20;99.90;;;;;;4940415;29;20051;-46
2022/06/10 10:24:24;;;;;;;13.23;5.10;;;19.50;99.90;;;;;;5008888;28;20094;-45
2022/06/10 10:26:51;;;;;;;11.80;6.18;;;19.50;99.90;;;;;;4998748;28;20061;-45
2022/06/10 10:29:24;;;;;;;17.90;7.63;;;19.40;99.90;;;;;;5000490;28;20049;-45
2022/06/10 10:32:19;;;;;;;14.05;8.27;;;19.30;99.90;;;;;;4999537;28;20100;-46
2022/06/10 10:34:50;;;;;;;12.57;6.78;;;19.50;99.90;;;;;;5010316;28;20512;-45
2022/06/10 10:37:23;;;;;;;11.77;6.80;;;19.50;99.90;;;;;;4993283;28;20086;-49
2022/06/10 10:39:59;;;;;;;10.52;7.22;;;19.80;99.90;;;;;;5001270;28;20045;-46
2022/06/10 10:42:31;;;;;;;12.70;7.13;;;20.10;99.90;;;;;;5002536;28;20050;-46
2022/06/10 10:45:03;;;;;;;15.45;7.47;;;20.40;99.90;;;;;;5004071;28;20076;-46
2022/06/10 10:47:29;;;;;;;12.52;6.85;;;20.70;99.90;;;;;;4989858;28;20048;-49
2022/06/10 10:50:04;;;;;;;11.77;6.15;;;21.00;99.90;;;;;;4996797;28;20046;-45
2022/06/10 10:52:37;;;;;;;12.63;7.25;;;21.10;99.90;;;;;;4997870;28;20148;-47
2022/06/10 10:55:14;;;;;;;9.75;6.28;;;20.90;99.90;;;;;;4999731;28;20127;-47
2022/06/10 10:57:53;;;;;;;14.75;5.93;;;20.80;99.90;;;;;;4999253;28;20559;-45
2022/06/10 11:00:24;;;;;;;12.68;6.00;;;20.60;99.90;;;;;;5005526;28;20560;-45
2022/06/10 11:02:53;;;;;;;12.82;6.53;;;20.40;99.90;;;;;;5037526;28;20052;-45
2022/06/10 11:05:36;;;;;;;12.25;6.30;;;20.30;99.90;;;;;;5038176;28;20049;-45
2022/06/10 11:08:16;;;;;;;17.15;7.35;;;20.30;99.90;;;;;;5037296;28;20044;-47
2022/06/10 11:11:04;;;;;;;10.52;6.85;;;20.20;99.90;;;;;;5032527;28;20056;-46
2022/06/10 11:13:29;;;;;;;11.27;6.72;;;20.20;99.90;;;;;;5039326;28;20152;-45
2022/06/10 11:15:55;;;;;;;16.90;7.72;;;20.00;99.90;;;;;;5040186;28;20045;-47
2022/06/10 11:18:21;;;;;;;14.40;7.05;;;20.10;99.90;;;;;;5036592;28;20041;-45
2022/06/10 11:20:47;;;;;;;13.05;8.02;;;20.30;99.90;;;;;;5023890;28;20057;-45
2022/06/10 11:23:27;;;;;;;11.65;7.20;;;20.40;99.90;;;;;;5035919;28;20041;-46
2022/06/10 11:26:13;;;;;;;16.05;8.05;;;20.50;99.90;;;;;;5017734;28;20464;-44
2022/06/10 11:28:41;;;;;;;15.15;7.28;;;20.40;99.90;;;;;;5039235;28;20106;-46
2022/06/10 11:31:22;;;;;;;12.35;7.78;;;20.30;99.90;;;;;;5016732;28;20076;-46
2022/06/10 11:33:52;;;;;;;21.70;11.50;;;20.20;99.90;;;;;;5037862;28;20045;-45
2022/06/10 11:36:54;;;;;;;13.70;8.25;;;20.10;99.90;;;;;;5018876;28;20057;-45
2022/06/10 11:39:22;;;;;;;19.73;8.65;;;20.00;99.90;;;;;;5012796;28;20063;-45
2022/06/10 11:42:14;;;;;;;16.63;7.72;;;20.00;99.90;;;;;;5040068;28;20475;-45
2022/06/10 11:45:07;;;;;;;13.02;7.80;;;20.10;99.90;;;;;;5032061;28;20049;-46
2022/06/10 11:47:44;;;;;;;13.15;8.55;;;20.20;99.90;;;;;;5017935;28;20782;-45
2022/06/10 11:50:23;;;;;;;20.17;9.25;;;20.40;99.90;;;;;;5004701;28;20101;-45
2022/06/10 11:53:05;;;;;;;22.88;9.57;;;20.50;99.90;;;;;;5040959;28;20045;-46
2022/06/10 11:55:35;;;;;;;15.20;6.53;;;20.90;99.90;;;;;;5024882;28;20053;-44
2022/06/10 12:01:07;;;;;;;13.23;5.60;;;21.30;99.90;;;;;;5039576;28;20048;-46
2022/06/10 12:03:52;;;;;;;14.68;6.82;;;21.50;99.90;;;;;;5042427;28;20063;-46
2022/06/10 12:06:31;;;;;;;12.63;5.97;;;21.50;99.90;;;;;;5042110;28;20057;-47
2022/06/10 12:09:41;;;;;;;10.10;5.78;;;21.50;99.90;;;;;;5023991;28;20618;-47
2022/06/10 12:12:20;;;;;;;11.40;5.60;;;21.30;99.90;;;;;;4943220;28;20150;-47
2022/06/10 12:14:51;;;;;;;19.63;8.68;;;21.30;99.90;;;;;;4960513;28;20067;-45
2022/06/10 12:17:32;;;;;;;9.93;5.60;;;21.30;99.90;;;;;;4960749;28;20399;-45
2022/06/10 12:20:17;;;;;;;12.35;5.82;;;21.40;99.90;;;;;;4959757;28;20042;-47
2022/06/10 12:22:43;;;;;;;8.85;4.28;;;21.40;99.90;;;;;;4941896;28;20050;-47
2022/06/10 12:25:30;;;;;;;19.42;6.97;;;21.50;99.90;;;;;;4959484;28;20051;-46
2022/06/10 12:28:08;;;;;;;9.05;3.78;;;21.50;99.90;;;;;;4960497;28;20506;-45
2022/06/10 12:30:45;;;;;;;10.10;5.00;;;21.50;99.90;;;;;;4954682;28;20046;-45
2022/06/10 12:33:44;;;;;;;8.48;3.55;;;21.70;99.90;;;;;;4959639;28;20495;-45
2022/06/10 12:36:39;;;;;;;7.95;4.05;;;22.10;99.90;;;;;;4958161;28;20054;-44
2022/06/10 12:39:14;;;;;;;7.00;4.13;;;22.20;99.90;;;;;;4958134;28;20341;-45
2022/06/10 12:41:46;;;;;;;13.48;3.65;;;22.40;99.90;;;;;;4958853;28;20483;-46
2022/06/10 12:44:18;;;;;;;10.00;4.47;;;22.50;99.90;;;;;;4958652;28;20140;-45
2022/06/10 12:46:48;;;;;;;4.43;2.97;;;22.40;99.90;;;;;;4965179;28;20060;-45
2022/06/10 12:49:17;;;;;;;7.15;3.58;;;22.60;99.90;;;;;;5041134;28;20052;-45
2022/06/10 12:51:58;;;;;;;9.95;2.97;;;22.80;99.90;;;;;;5040864;28;20053;-47
2022/06/10 12:54:43;;;;;;;8.80;2.90;;;22.80;99.90;;;;;;5040846;28;20052;-46
2022/06/10 12:57:34;;;;;;;5.60;2.40;;;22.80;99.90;;;;;;5040942;28;20056;-45
2022/06/10 13:00:18;;;;;;;6.20;3.00;;;22.70;99.90;;;;;;5023218;28;20249;-45
2022/06/10 13:03:14;;;;;;;7.18;2.92;;;22.50;99.90;;;;;;5027433;28;20102;-45
2022/06/10 13:05:40;;;;;;;5.70;2.63;;;22.30;99.90;;;;;;5043964;28;20482;-46
2022/06/10 13:08:30;;;;;;;7.95;2.40;;;22.40;99.90;;;;;;5035640;28;20041;-45
2022/06/10 13:10:57;;;;;;;9.05;2.63;;;22.40;99.90;;;;;;5041420;28;20053;-47
2022/06/10 13:13:24;;;;;;;5.72;2.60;;;22.40;99.90;;;;;;5039811;28;20080;-45
2022/06/10 13:15:56;;;;;;;5.95;2.47;;;22.40;99.90;;;;;;5040003;28;20508;-44
2022/06/10 13:18:34;;;;;;;6.35;2.92;;;22.30;99.90;;;;;;5040864;28;20140;-46
2022/06/10 13:21:14;;;;;;;8.35;2.58;;;22.40;99.90;;;;;;5022444;28;20063;-45
2022/06/10 13:23:58;;;;;;;8.93;2.85;;;22.50;99.90;;;;;;5034053;28;20506;-46
2022/06/10 13:26:26;;;;;;;8.02;2.83;;;22.30;99.90;;;;;;5038257;28;20045;-46
2022/06/10 13:28:52;;;;;;;7.10;2.55;;;22.30;99.90;;;;;;5039991;28;20519;-46